Time;durP1;ratioP1;P1;durP2;ratioP2;P2;SDS_P1;SDS_P2;PMS_P1;PMS_P2;Temp;Humidity;BMP_temperature;BMP_pressure;BME280_temperature;BME280_humidity;BME280_pressure;Samples;Min_cycle;Max_cycle;Signal;HPM_P1;HPM_P2
2023/07/12 00:04:36;;;;;;;4.25;3.03;;;;;;;;;;10208512;28;20219;-81
2023/07/12 00:09:37;;;;;;;2.92;2.72;;;;;;;;;;10217177;28;20513;-79
2023/07/12 00:14:38;;;;;;;2.97;2.88;;;;;;;;;;10209020;28;20754;-81
2023/07/12 00:19:39;;;;;;;3.13;3.03;;;;;;;;;;10217597;28;24588;-77
2023/07/12 00:24:40;;;;;;;2.33;2.33;;;;;;;;;;10206446;28;20216;-78
2023/07/12 00:29:41;;;;;;;3.30;2.92;;;;;;;;;;10207983;28;20227;-78
2023/07/12 00:34:42;;;;;;;2.65;2.30;;;;;;;;;;10211179;28;20219;-80
2023/07/12 00:39:43;;;;;;;3.53;2.90;;;;;;;;;;10192264;28;20251;-79
2023/07/12 00:44:50;;;;;;;2.53;2.35;;;;;;;;;;10205406;28;20955;-80
2023/07/12 00:49:53;;;;;;;2.75;2.65;;;;;;;;;;10195885;28;21097;-81
2023/07/12 00:54:59;;;;;;;3.28;3.03;;;;;;;;;;10194534;28;20219;-80
2023/07/12 01:00:11;;;;;;;3.90;3.30;;;;;;;;;;10213396;28;20217;-76
2023/07/12 01:05:15;;;;;;;3.40;3.10;;;;;;;;;;10189419;28;21310;-78
2023/07/12 01:10:17;;;;;;;3.60;3.30;;;;;;;;;;10203876;28;20750;-80
2023/07/12 01:15:18;;;;;;;3.60;3.38;;;;;;;;;;10206351;28;20754;-78
2023/07/12 01:20:21;;;;;;;4.15;3.85;;;;;;;;;;10196258;28;20451;-78
2023/07/12 01:25:34;;;;;;;3.17;3.03;;;;;;;;;;10209581;28;20204;-80
2023/07/12 01:30:36;;;;;;;3.67;3.47;;;;;;;;;;10195773;28;20239;-77
2023/07/12 01:35:37;;;;;;;6.50;3.75;;;;;;;;;;10194868;28;20248;-77
2023/07/12 01:40:38;;;;;;;5.65;3.80;;;;;;;;;;10208474;28;20220;-76
2023/07/12 01:45:39;;;;;;;3.63;3.35;;;;;;;;;;10194207;28;20228;-77
2023/07/12 01:50:41;;;;;;;3.40;3.20;;;;;;;;;;10205721;28;20318;-77
2023/07/12 01:55:43;;;;;;;9.32;4.20;;;;;;;;;;10195260;28;20252;-81
2023/07/12 02:00:44;;;;;;;4.20;3.90;;;;;;;;;;10205145;28;20339;-78
2023/07/12 02:05:45;;;;;;;3.63;3.30;;;;;;;;;;10212925;28;20212;-77
2023/07/12 02:10:46;;;;;;;4.18;3.85;;;;;;;;;;10202638;28;20786;-81
2023/07/12 02:15:47;;;;;;;4.18;3.78;;;;;;;;;;10202666;28;20753;-79
2023/07/12 02:20:48;;;;;;;5.47;4.55;;;;;;;;;;10208105;28;21038;-75
2023/07/12 02:25:49;;;;;;;3.90;3.70;;;;;;;;;;10180946;28;20226;-77
2023/07/12 02:30:51;;;;;;;3.90;3.50;;;;;;;;;;10184192;28;20326;-79
2023/07/12 02:35:52;;;;;;;4.82;4.32;;;;;;;;;;10209497;28;20213;-78
2023/07/12 02:40:53;;;;;;;5.97;3.70;;;;;;;;;;10211820;28;20219;-76
2023/07/12 02:45:54;;;;;;;3.75;3.55;;;;;;;;;;10183711;28;20240;-77
2023/07/12 02:50:55;;;;;;;3.63;3.42;;;;;;;;;;10188250;28;20240;-78
2023/07/12 02:55:56;;;;;;;3.10;3.00;;;;;;;;;;10209294;28;20815;-79
2023/07/12 03:00:57;;;;;;;3.40;3.20;;;;;;;;;;10200665;28;20229;-75
2023/07/12 03:06:02;;;;;;;3.80;3.00;;;;;;;;;;10185555;28;20805;-78
2023/07/12 03:11:05;;;;;;;3.10;2.90;;;;;;;;;;10181549;28;20220;-77
2023/07/12 03:16:07;;;;;;;3.58;3.42;;;;;;;;;;10203562;28;20217;-76
2023/07/12 03:21:09;;;;;;;2.97;2.78;;;;;;;;;;10204091;28;20287;-77
2023/07/12 03:26:10;;;;;;;2.90;2.70;;;;;;;;;;10200846;28;20275;-79
2023/07/12 03:31:13;;;;;;;8.45;3.55;;;;;;;;;;10200746;28;20222;-75
2023/07/12 03:36:14;;;;;;;2.72;2.58;;;;;;;;;;10189012;28;21566;-76
2023/07/12 03:41:16;;;;;;;2.08;1.98;;;;;;;;;;10188236;28;20247;-76
2023/07/12 03:46:17;;;;;;;2.67;2.47;;;;;;;;;;10189587;28;20228;-75
2023/07/12 03:51:22;;;;;;;2.25;2.22;;;;;;;;;;10202674;28;20761;-77
2023/07/12 03:56:23;;;;;;;2.22;2.05;;;;;;;;;;10193247;28;20208;-76
2023/07/12 04:01:24;;;;;;;1.88;1.85;;;;;;;;;;10201919;28;20228;-77
2023/07/12 04:06:25;;;;;;;1.50;1.50;;;;;;;;;;10193418;28;20259;-78
2023/07/12 04:11:28;;;;;;;1.20;1.20;;;;;;;;;;10209996;28;20224;-80
2023/07/12 04:16:30;;;;;;;1.40;1.40;;;;;;;;;;10213089;28;20230;-76
2023/07/12 04:21:31;;;;;;;1.55;1.45;;;;;;;;;;10216235;28;20232;-80
2023/07/12 04:26:32;;;;;;;2.05;1.65;;;;;;;;;;10205755;28;22498;-76
2023/07/12 04:31:33;;;;;;;2.00;1.55;;;;;;;;;;10206109;28;20967;-78
2023/07/12 04:36:34;;;;;;;1.13;1.13;;;;;;;;;;10181677;28;21120;-77
2023/07/12 04:41:36;;;;;;;2.05;1.50;;;;;;;;;;10205475;28;20240;-78
2023/07/12 04:46:38;;;;;;;1.80;1.70;;;;;;;;;;10209908;28;20224;-80
2023/07/12 04:51:38;;;;;;;2.08;1.77;;;;;;;;;;10213696;28;20606;-77
2023/07/12 04:56:40;;;;;;;2.08;2.00;;;;;;;;;;10217680;28;21983;-77
2023/07/12 05:01:41;;;;;;;4.40;2.20;;;;;;;;;;10205242;28;20224;-75
2023/07/12 05:06:42;;;;;;;2.33;2.10;;;;;;;;;;10208696;28;20294;-77
2023/07/12 05:11:43;;;;;;;2.45;2.33;;;;;;;;;;10223453;28;20226;-79
2023/07/12 05:16:44;;;;;;;4.65;2.17;;;;;;;;;;10218831;28;23302;-75
2023/07/12 05:21:45;;;;;;;2.10;2.00;;;;;;;;;;10213412;28;21507;-78
2023/07/12 05:26:45;;;;;;;2.35;2.03;;;;;;;;;;10216863;28;20919;-77
2023/07/12 05:31:46;;;;;;;1.90;1.77;;;;;;;;;;10214327;28;20212;-76
2023/07/12 05:36:47;;;;;;;2.85;2.50;;;;;;;;;;10197376;28;21141;-78
2023/07/12 05:41:48;;;;;;;4.32;2.42;;;;;;;;;;10212516;28;20604;-78
2023/07/12 05:46:49;;;;;;;2.47;2.28;;;;;;;;;;10233935;28;23162;-78
2023/07/12 05:51:51;;;;;;;2.45;2.17;;;;;;;;;;10198973;28;20480;-78
2023/07/12 05:56:52;;;;;;;2.22;2.13;;;;;;;;;;10220480;28;20224;-77
2023/07/12 06:01:53;;;;;;;2.38;2.30;;;;;;;;;;10210034;28;20275;-78
2023/07/12 06:06:54;;;;;;;2.95;2.20;;;;;;;;;;10207185;28;20232;-77
2023/07/12 06:11:55;;;;;;;5.20;2.05;;;;;;;;;;10194051;28;20219;-80
2023/07/12 06:16:56;;;;;;;3.42;2.60;;;;;;;;;;10211745;28;21709;-75
2023/07/12 06:21:58;;;;;;;3.50;2.38;;;;;;;;;;10223429;28;20770;-80
2023/07/12 06:26:59;;;;;;;2.47;2.08;;;;;;;;;;10212317;28;20315;-78
2023/07/12 06:32:00;;;;;;;2.05;1.95;;;;;;;;;;10206641;28;22804;-76
2023/07/12 06:37:01;;;;;;;2.03;1.92;;;;;;;;;;10224523;28;22935;-75
2023/07/12 06:42:02;;;;;;;1.98;1.88;;;;;;;;;;10209568;28;20820;-75
2023/07/12 06:47:06;;;;;;;1.90;1.80;;;;;;;;;;10208243;28;20224;-75
2023/07/12 06:52:10;;;;;;;1.50;1.50;;;;;;;;;;10196388;28;20604;-76
2023/07/12 06:57:11;;;;;;;0.80;0.80;;;;;;;;;;10220534;28;20228;-75
2023/07/12 07:02:12;;;;;;;1.00;1.00;;;;;;;;;;10193474;28;20232;-75
2023/07/12 07:07:13;;;;;;;1.08;0.98;;;;;;;;;;10212753;28;20754;-74
2023/07/12 07:12:14;;;;;;;0.70;0.70;;;;;;;;;;10216322;28;20291;-79
2023/07/12 07:17:15;;;;;;;0.80;0.80;;;;;;;;;;10210084;28;21642;-77
2023/07/12 07:22:16;;;;;;;0.82;0.60;;;;;;;;;;10202166;28;21899;-73
2023/07/12 07:27:17;;;;;;;0.55;0.52;;;;;;;;;;10200649;28;20662;-74
2023/07/12 07:32:18;;;;;;;1.45;0.40;;;;;;;;;;10212416;28;20616;-77
2023/07/12 07:37:20;;;;;;;0.75;0.38;;;;;;;;;;10210538;28;20302;-76
2023/07/12 07:42:21;;;;;;;0.40;0.40;;;;;;;;;;10187714;28;20224;-75
2023/07/12 07:47:22;;;;;;;0.55;0.40;;;;;;;;;;10192139;28;20860;-73
2023/07/12 07:52:23;;;;;;;2.08;0.32;;;;;;;;;;10187840;28;21258;-78
2023/07/12 07:57:24;;;;;;;0.35;0.30;;;;;;;;;;10206129;28;20702;-77
2023/07/12 08:02:25;;;;;;;0.20;0.20;;;;;;;;;;10192939;28;20230;-76
2023/07/12 08:07:26;;;;;;;0.40;0.40;;;;;;;;;;10202153;28;20770;-73
2023/07/12 08:12:28;;;;;;;0.30;0.30;;;;;;;;;;10209004;28;20224;-76
2023/07/12 08:17:29;;;;;;;1.48;0.30;;;;;;;;;;10211771;28;20226;-76
2023/07/12 08:22:31;;;;;;;0.20;0.20;;;;;;;;;;10205798;28;20875;-77
2023/07/12 08:27:32;;;;;;;0.32;0.32;;;;;;;;;;10215999;28;21330;-77
2023/07/12 08:32:34;;;;;;;0.38;0.30;;;;;;;;;;10226788;28;21397;-77
2023/07/12 08:37:36;;;;;;;0.43;0.40;;;;;;;;;;10202146;28;20867;-75
2023/07/12 08:42:39;;;;;;;0.30;0.30;;;;;;;;;;10215730;28;20609;-78
2023/07/12 08:47:40;;;;;;;0.20;0.20;;;;;;;;;;10219784;28;20435;-78
2023/07/12 08:52:42;;;;;;;0.45;0.40;;;;;;;;;;10226109;28;20212;-77
2023/07/12 08:57:43;;;;;;;0.30;0.30;;;;;;;;;;10223642;28;20243;-79
2023/07/12 09:02:44;;;;;;;0.55;0.30;;;;;;;;;;10230306;28;20232;-77
2023/07/12 09:07:54;;;;;;;2.17;0.32;;;;;;;;;;10203877;28;20561;-78
2023/07/12 09:12:57;;;;;;;0.38;0.30;;;;;;;;;;10201855;28;20220;-81
2023/07/12 09:17:58;;;;;;;0.20;0.20;;;;;;;;;;10218248;28;20394;-81
2023/07/12 09:22:59;;;;;;;0.20;0.20;;;;;;;;;;10219890;28;20227;-79
2023/07/12 09:28:01;;;;;;;0.20;0.20;;;;;;;;;;10209177;28;20227;-79
2023/07/12 09:33:03;;;;;;;0.30;0.30;;;;;;;;;;10204950;28;20286;-82
2023/07/12 09:38:09;;;;;;;0.70;0.20;;;;;;;;;;10212520;28;20293;-80
2023/07/12 09:43:15;;;;;;;0.10;0.10;;;;;;;;;;10226476;28;20768;-79
2023/07/12 09:48:23;;;;;;;0.30;0.20;;;;;;;;;;10225361;28;20242;-82
2023/07/12 09:53:32;;;;;;;0.20;0.20;;;;;;;;;;10224168;28;22157;-81
2023/07/12 09:58:42;;;;;;;0.13;0.13;;;;;;;;;;10199510;28;20463;-81
2023/07/12 10:03:47;;;;;;;0.10;0.10;;;;;;;;;;10204848;28;21587;-80
2023/07/12 10:09:03;;;;;;;0.20;0.20;;;;;;;;;;10228900;28;20653;-79
2023/07/12 10:14:06;;;;;;;0.20;0.20;;;;;;;;;;10221923;28;21961;-80
2023/07/12 10:19:20;;;;;;;0.20;0.20;;;;;;;;;;10203560;28;20227;-80
2023/07/12 10:24:24;;;;;;;0.20;0.20;;;;;;;;;;10205979;28;20876;-79
2023/07/12 10:29:30;;;;;;;0.75;0.10;;;;;;;;;;10222497;28;20686;-82
2023/07/12 10:34:41;;;;;;;0.15;0.15;;;;;;;;;;10207690;28;20373;-80
2023/07/12 10:39:42;;;;;;;2.20;0.30;;;;;;;;;;10220968;28;20845;-77
2023/07/12 10:44:48;;;;;;;0.20;0.20;;;;;;;;;;10220293;28;20288;-78
2023/07/12 10:49:56;;;;;;;0.17;0.17;;;;;;;;;;10216958;28;20232;-81
2023/07/12 10:55:04;;;;;;;1.00;0.30;;;;;;;;;;10220167;28;21462;-80
2023/07/12 11:00:25;;;;;;;0.32;0.20;;;;;;;;;;10206447;28;20259;-80
2023/07/12 11:05:41;;;;;;;0.20;0.20;;;;;;;;;;10227714;28;21222;-81
2023/07/12 11:10:43;;;;;;;0.30;0.30;;;;;;;;;;10185170;28;20224;-80
2023/07/12 11:16:07;;;;;;;0.20;0.20;;;;;;;;;;10203014;28;20231;-80
2023/07/12 11:21:27;;;;;;;0.25;0.25;;;;;;;;;;10180974;28;20221;-79
2023/07/12 11:26:33;;;;;;;2.08;0.10;;;;;;;;;;10183305;28;20228;-80
2023/07/12 11:31:34;;;;;;;2.45;0.20;;;;;;;;;;10188427;28;20261;-79
2023/07/12 11:36:36;;;;;;;1.25;0.30;;;;;;;;;;10195335;28;20220;-81
2023/07/12 11:41:39;;;;;;;0.20;0.20;;;;;;;;;;10191186;28;20217;-78
2023/07/12 11:46:41;;;;;;;0.20;0.20;;;;;;;;;;10183255;28;20216;-79
2023/07/12 11:51:43;;;;;;;0.45;0.30;;;;;;;;;;10192450;28;20283;-78
2023/07/12 11:56:45;;;;;;;1.30;0.20;;;;;;;;;;10187009;28;20220;-81
2023/07/12 12:01:47;;;;;;;0.20;0.20;;;;;;;;;;10209411;28;20321;-82
2023/07/12 12:06:50;;;;;;;0.30;0.30;;;;;;;;;;10202947;28;20244;-78
2023/07/12 12:11:53;;;;;;;0.30;0.30;;;;;;;;;;10239256;28;20259;-78
2023/07/12 12:16:55;;;;;;;0.30;0.30;;;;;;;;;;10241643;28;20220;-79
2023/07/12 12:22:00;;;;;;;0.22;0.22;;;;;;;;;;10231889;28;21015;-80
2023/07/12 12:27:01;;;;;;;0.38;0.38;;;;;;;;;;10239507;28;20321;-79
2023/07/12 12:32:04;;;;;;;1.45;0.40;;;;;;;;;;10233319;28;20216;-81
2023/07/12 12:37:04;;;;;;;0.40;0.40;;;;;;;;;;10225666;28;20282;-79
2023/07/12 12:42:19;;;;;;;0.40;0.40;;;;;;;;;;10212305;28;20856;-77
2023/07/12 12:47:39;;;;;;;0.40;0.40;;;;;;;;;;10223662;28;20224;-79
2023/07/12 12:52:40;;;;;;;0.30;0.30;;;;;;;;;;10233326;28;22906;-79
2023/07/12 12:57:42;;;;;;;0.30;0.30;;;;;;;;;;10239889;28;20216;-79
2023/07/12 13:02:43;;;;;;;3.38;0.30;;;;;;;;;;10234657;28;20469;-78
2023/07/12 13:07:44;;;;;;;0.30;0.30;;;;;;;;;;10230514;28;20804;-80
2023/07/12 13:12:46;;;;;;;0.30;0.30;;;;;;;;;;10234925;28;20315;-76
2023/07/12 13:17:48;;;;;;;0.88;0.43;;;;;;;;;;10227282;28;20428;-76
2023/07/12 13:22:49;;;;;;;0.40;0.40;;;;;;;;;;10217556;28;20330;-79
2023/07/12 13:27:55;;;;;;;0.55;0.55;;;;;;;;;;10235377;28;20990;-79
2023/07/12 13:32:56;;;;;;;0.30;0.30;;;;;;;;;;10234357;28;20224;-79
2023/07/12 13:37:57;;;;;;;0.20;0.20;;;;;;;;;;10239008;28;20765;-78
2023/07/12 13:42:58;;;;;;;0.30;0.30;;;;;;;;;;10222808;28;20250;-81
2023/07/12 13:47:59;;;;;;;0.40;0.40;;;;;;;;;;10218547;28;20221;-80
2023/07/12 13:53:01;;;;;;;0.28;0.28;;;;;;;;;;10232827;28;20220;-83
2023/07/12 13:58:02;;;;;;;1.00;0.25;;;;;;;;;;10229675;28;20232;-81
2023/07/12 14:03:04;;;;;;;0.30;0.30;;;;;;;;;;10234408;28;20224;-81
2023/07/12 14:08:06;;;;;;;0.30;0.20;;;;;;;;;;10207906;28;20607;-78
2023/07/12 14:13:25;;;;;;;0.20;0.20;;;;;;;;;;10230671;28;20224;-77
2023/07/12 14:18:26;;;;;;;1.35;0.20;;;;;;;;;;10217787;28;20335;-80
2023/07/12 14:23:29;;;;;;;1.73;0.25;;;;;;;;;;10234533;28;20228;-79
2023/07/12 14:28:30;;;;;;;0.30;0.30;;;;;;;;;;10229318;28;20227;-80
2023/07/12 14:33:38;;;;;;;0.55;0.30;;;;;;;;;;10233208;28;21047;-77
2023/07/12 14:38:39;;;;;;;0.20;0.20;;;;;;;;;;10206780;28;20666;-80
2023/07/12 14:43:41;;;;;;;0.30;0.30;;;;;;;;;;10221456;28;20436;-77
2023/07/12 14:48:42;;;;;;;0.20;0.20;;;;;;;;;;10212300;28;20302;-77
2023/07/12 14:53:43;;;;;;;0.30;0.30;;;;;;;;;;10222469;28;21212;-79
2023/07/12 14:58:44;;;;;;;0.63;0.20;;;;;;;;;;10206180;28;20222;-79
2023/07/12 15:03:45;;;;;;;0.30;0.30;;;;;;;;;;10223013;28;20738;-81
2023/07/12 15:08:47;;;;;;;2.60;0.30;;;;;;;;;;10214776;28;20228;-79
2023/07/12 15:13:49;;;;;;;1.20;0.30;;;;;;;;;;10220120;28;20564;-77
2023/07/12 15:18:52;;;;;;;1.83;0.30;;;;;;;;;;10222342;28;20230;-78
2023/07/12 15:23:53;;;;;;;0.75;0.30;;;;;;;;;;10229144;28;20231;-80
2023/07/12 15:28:54;;;;;;;0.30;0.30;;;;;;;;;;10234809;28;20223;-78
2023/07/12 15:33:55;;;;;;;0.40;0.40;;;;;;;;;;10206442;28;20917;-79
2023/07/12 15:38:57;;;;;;;0.30;0.30;;;;;;;;;;10222473;28;20223;-79
2023/07/12 15:43:58;;;;;;;0.40;0.38;;;;;;;;;;10229649;28;20220;-80
2023/07/12 15:49:00;;;;;;;0.30;0.30;;;;;;;;;;10196603;28;20232;-82
2023/07/12 15:54:02;;;;;;;0.40;0.40;;;;;;;;;;10216498;28;20392;-82
2023/07/12 15:59:04;;;;;;;0.52;0.30;;;;;;;;;;10213579;28;20231;-80
2023/07/12 16:04:05;;;;;;;0.40;0.40;;;;;;;;;;10217121;28;20698;-78
2023/07/12 16:09:06;;;;;;;0.40;0.40;;;;;;;;;;10194630;28;20333;-80
2023/07/12 16:14:15;;;;;;;4.15;0.38;;;;;;;;;;10222063;28;20604;-76
2023/07/12 16:19:18;;;;;;;2.92;0.30;;;;;;;;;;10239455;28;20929;-76
2023/07/12 16:24:19;;;;;;;0.40;0.40;;;;;;;;;;10234114;28;20568;-79
2023/07/12 16:29:20;;;;;;;0.40;0.40;;;;;;;;;;10226367;28;20228;-76
2023/07/12 16:34:23;;;;;;;1.02;0.40;;;;;;;;;;10219185;28;20782;-78
2023/07/12 16:39:25;;;;;;;5.47;0.50;;;;;;;;;;10235512;28;20335;-78
2023/07/12 16:44:26;;;;;;;0.30;0.30;;;;;;;;;;10220992;28;21487;-79
2023/07/12 16:49:28;;;;;;;0.32;0.32;;;;;;;;;;10242425;28;20415;-79
2023/07/12 16:54:29;;;;;;;0.40;0.40;;;;;;;;;;10236677;28;20334;-81
2023/07/12 16:59:32;;;;;;;0.82;0.35;;;;;;;;;;10234147;28;20224;-81
2023/07/12 17:04:33;;;;;;;2.10;0.40;;;;;;;;;;10224333;28;20270;-82
2023/07/12 17:09:34;;;;;;;0.45;0.45;;;;;;;;;;10224838;28;20236;-78
2023/07/12 17:14:35;;;;;;;0.43;0.40;;;;;;;;;;10228672;28;20713;-81
2023/07/12 17:19:36;;;;;;;0.35;0.35;;;;;;;;;;10217921;28;20811;-81
2023/07/12 17:24:37;;;;;;;0.30;0.30;;;;;;;;;;10231089;28;20207;-83
2023/07/12 17:29:39;;;;;;;1.65;0.40;;;;;;;;;;10221291;28;20601;-85
2023/07/12 17:34:41;;;;;;;1.00;0.32;;;;;;;;;;10214614;28;20299;-80
2023/07/12 17:39:46;;;;;;;0.30;0.30;;;;;;;;;;10229146;28;20216;-79
2023/07/12 17:44:47;;;;;;;1.17;0.40;;;;;;;;;;10216941;28;20224;-81
2023/07/12 17:49:49;;;;;;;0.47;0.47;;;;;;;;;;10226300;28;20255;-80
2023/07/12 17:54:50;;;;;;;3.13;0.40;;;;;;;;;;10199810;28;20245;-78
2023/07/12 17:59:53;;;;;;;0.30;0.30;;;;;;;;;;10195798;28;20219;-79
2023/07/12 18:04:54;;;;;;;0.40;0.40;;;;;;;;;;10202512;28;20216;-79
2023/07/12 18:09:55;;;;;;;0.50;0.50;;;;;;;;;;10194001;28;20641;-80
2023/07/12 18:14:56;;;;;;;0.40;0.40;;;;;;;;;;10177001;28;20221;-76
2023/07/12 18:19:57;;;;;;;0.40;0.40;;;;;;;;;;10190850;28;24451;-80
2023/07/12 18:24:58;;;;;;;0.35;0.35;;;;;;;;;;10180138;28;20327;-76
2023/07/12 18:29:59;;;;;;;1.45;0.40;;;;;;;;;;10182647;28;21360;-79
2023/07/12 18:35:00;;;;;;;1.55;0.47;;;;;;;;;;10175342;28;20216;-81
2023/07/12 18:40:03;;;;;;;0.40;0.40;;;;;;;;;;10185081;28;20927;-80
2023/07/12 18:45:15;;;;;;;0.63;0.50;;;;;;;;;;10176524;28;20494;-81
2023/07/12 18:50:17;;;;;;;0.70;0.45;;;;;;;;;;10200989;28;20229;-82
2023/07/12 18:55:19;;;;;;;0.40;0.40;;;;;;;;;;10197000;28;20275;-79
2023/07/12 19:00:20;;;;;;;1.13;0.60;;;;;;;;;;10190737;28;20326;-77
2023/07/12 19:05:23;;;;;;;0.55;0.50;;;;;;;;;;10200377;28;20247;-76
2023/07/12 19:10:28;;;;;;;1.98;0.50;;;;;;;;;;10207615;28;20240;-81
2023/07/12 19:15:34;;;;;;;0.50;0.50;;;;;;;;;;10211342;28;20227;-80
2023/07/12 19:20:35;;;;;;;0.90;0.52;;;;;;;;;;10235108;28;20706;-81
2023/07/12 19:25:36;;;;;;;2.10;0.43;;;;;;;;;;10223531;28;20227;-80
2023/07/12 19:30:38;;;;;;;0.80;0.52;;;;;;;;;;10232714;28;20703;-79
2023/07/12 19:35:39;;;;;;;0.40;0.40;;;;;;;;;;10222509;28;20224;-79
2023/07/12 19:40:40;;;;;;;0.60;0.60;;;;;;;;;;10209017;28;20224;-79
2023/07/12 19:45:41;;;;;;;0.60;0.50;;;;;;;;;;10224569;28;20871;-83
2023/07/12 19:50:43;;;;;;;3.22;0.50;;;;;;;;;;10220244;28;20231;-79
2023/07/12 19:55:44;;;;;;;0.40;0.40;;;;;;;;;;10231417;28;20266;-83
2023/07/12 20:00:47;;;;;;;0.77;0.47;;;;;;;;;;10216019;28;20232;-81
2023/07/12 20:05:48;;;;;;;1.73;0.70;;;;;;;;;;10198958;28;20960;-78
2023/07/12 20:10:49;;;;;;;0.50;0.50;;;;;;;;;;10202117;28;20260;-79
2023/07/12 20:15:50;;;;;;;0.50;0.50;;;;;;;;;;10218702;28;20223;-80
2023/07/12 20:20:53;;;;;;;0.50;0.50;;;;;;;;;;10201579;28;20231;-78
2023/07/12 20:25:55;;;;;;;0.60;0.60;;;;;;;;;;10176118;28;21192;-78
2023/07/12 20:30:57;;;;;;;3.05;0.98;;;;;;;;;;10207136;28;20798;-78
2023/07/12 20:35:58;;;;;;;0.40;0.40;;;;;;;;;;10211842;28;20943;-76
2023/07/12 20:41:00;;;;;;;0.70;0.70;;;;;;;;;;10211899;28;20224;-79
2023/07/12 20:46:01;;;;;;;0.63;0.63;;;;;;;;;;10196116;28;20806;-80
2023/07/12 20:51:04;;;;;;;1.10;0.70;;;;;;;;;;10213531;28;20225;-78
2023/07/12 20:56:05;;;;;;;1.20;1.15;;;;;;;;;;10213291;28;20231;-78
2023/07/12 21:01:09;;;;;;;0.50;0.50;;;;;;;;;;10212378;28;20244;-79
2023/07/12 21:06:11;;;;;;;0.52;0.52;;;;;;;;;;10207574;28;20216;-80
2023/07/12 21:11:12;;;;;;;3.00;0.75;;;;;;;;;;10212766;28;20235;-80
2023/07/12 21:16:14;;;;;;;0.80;0.73;;;;;;;;;;10203829;28;20226;-79
2023/07/12 21:21:16;;;;;;;0.80;0.80;;;;;;;;;;10193657;28;20359;-78
2023/07/12 21:26:17;;;;;;;1.67;0.70;;;;;;;;;;10205878;28;20224;-75
2023/07/12 21:31:19;;;;;;;1.80;1.02;;;;;;;;;;10189686;28;20698;-79
2023/07/12 21:36:20;;;;;;;0.95;0.60;;;;;;;;;;10206742;28;20246;-77
2023/07/12 21:41:21;;;;;;;0.77;0.77;;;;;;;;;;10206613;28;20227;-78
2023/07/12 21:46:22;;;;;;;1.70;0.60;;;;;;;;;;10210799;28;20331;-75
2023/07/12 21:51:24;;;;;;;2.88;0.70;;;;;;;;;;10195924;28;20216;-78
2023/07/12 21:56:25;;;;;;;1.35;0.50;;;;;;;;;;10205036;28;21588;-78
2023/07/12 22:01:26;;;;;;;1.52;0.60;;;;;;;;;;10206919;28;20625;-77
2023/07/12 22:06:27;;;;;;;0.63;0.63;;;;;;;;;;10213893;28;20232;-75
2023/07/12 22:11:29;;;;;;;0.80;0.57;;;;;;;;;;10212015;28;20224;-80
2023/07/12 22:16:30;;;;;;;1.63;0.50;;;;;;;;;;10194702;28;20421;-77
2023/07/12 22:21:32;;;;;;;0.65;0.60;;;;;;;;;;10196660;28;20833;-81
2023/07/12 22:26:33;;;;;;;0.50;0.50;;;;;;;;;;10204645;28;20251;-78
2023/07/12 22:31:34;;;;;;;0.68;0.65;;;;;;;;;;10190817;28;20255;-78
2023/07/12 22:36:35;;;;;;;0.55;0.55;;;;;;;;;;10194793;28;20295;-76
2023/07/12 22:41:36;;;;;;;0.90;0.90;;;;;;;;;;10193697;28;20847;-78
2023/07/12 22:46:37;;;;;;;0.60;0.60;;;;;;;;;;10203102;28;21560;-77
2023/07/12 22:51:38;;;;;;;0.63;0.63;;;;;;;;;;10196306;28;20228;-75
2023/07/12 22:56:39;;;;;;;0.50;0.43;;;;;;;;;;10200659;28;21620;-77
2023/07/12 23:01:40;;;;;;;0.68;0.68;;;;;;;;;;10198776;28;20302;-77
2023/07/12 23:06:43;;;;;;;2.53;0.70;;;;;;;;;;10203190;28;21360;-80
2023/07/12 23:11:44;;;;;;;1.45;0.70;;;;;;;;;;10188689;28;20255;-79
2023/07/12 23:16:45;;;;;;;5.28;0.90;;;;;;;;;;10181332;28;20216;-76
2023/07/12 23:21:46;;;;;;;2.95;0.93;;;;;;;;;;10200574;28;20231;-76
2023/07/12 23:26:47;;;;;;;0.98;0.98;;;;;;;;;;10206038;28;20797;-76
2023/07/12 23:31:48;;;;;;;0.80;0.80;;;;;;;;;;10206665;28;20223;-77
2023/07/12 23:36:49;;;;;;;0.80;0.80;;;;;;;;;;10203204;28;20216;-78
2023/07/12 23:41:51;;;;;;;1.42;1.27;;;;;;;;;;10203516;28;22300;-73
2023/07/12 23:46:52;;;;;;;0.90;0.90;;;;;;;;;;10201068;28;20220;-76
2023/07/12 23:51:56;;;;;;;0.70;0.70;;;;;;;;;;10170500;28;21044;-78
2023/07/12 23:56:58;;;;;;;0.80;0.80;;;;;;;;;;10203738;28;20565;-77
